Weather observations for the past three days for
Rawlins Municipal Airport
Imperial (Metric)
Date Time (mdt) Wind (mph) Vis. (mi.) Weather Sky Cond. Temperature (ºF) Relative Humidity Wind Chill (°F) Heat Index (°F) Pressure Precipitation (in)
Air Dwpt 6 hour altimeter (in) sea level (mb) 1 hr 3 hr 6 hr
Max. Min.
04 14:53 NW 18 G 32 10.00 A Few Clouds FEW090 63 26.1 25% 29.83 1003.1
04 13:53 S 8 10.00 A Few Clouds FEW110 62.1 21.9 21% 29.83 1003.4
04 12:53 W 10 10.00 Mostly Cloudy BKN085 61 24.1 24% 29.86 1003.9
04 11:53 NW 10 G 17 10.00 Overcast OVC095 60.1 25 63 36 26% 29.88 1004.7
04 10:53 SW 14 G 20 10.00 Fair CLR 61 21.9 22% 29.88 1005.4
04 09:53 SW 16 G 26 10.00 Mostly Cloudy BKN110 59 21 23% 29.88 1004.4
04 08:53 SW 15 10.00 Fair CLR 57 21.9 26% 29.9 1006.0
04 07:53 SW 13 10.00 Fair CLR 52 21 30% 29.9 1005.2
04 06:53 Calm 10.00 Fair CLR 41 23 49% 29.89 1006.2
04 05:53 Vrbl 5 10.00 Partly Cloudy SCT120 42.1 19.9 50 34 41% 40 29.87 1004.8
04 04:53 SW 8 10.00 Fair CLR 44.1 19 37% 40 29.88 1005.0
04 03:53 Calm 10.00 Fair CLR 39.9 19.9 45% 29.88 1005.4
04 02:53 NW 7 10.00 Fair CLR 45 19 35% 42 29.88 1005.2
04 01:53 SW 8 10.00 Fair CLR 46 18 33% 42 29.89 1005.1
04 00:53 SW 9 10.00 Mostly Cloudy BKN120 48.9 16 27% 45 29.9 1005.7
03 23:53 SW 9 10.00 Fair CLR 48.9 16 64.9 42.1 27% 45 29.91 1006.0
03 22:53 Calm 10.00 Mostly Cloudy BKN110 44.1 21.9 41% 29.92 1007.2
03 21:53 Calm 10.00 Mostly Cloudy SCT085 BKN120 54 19 25% 29.93 1006.4
03 20:53 W 6 10.00 Mostly Cloudy BKN110 48 19.9 33% 46 29.93 1007.9
03 19:53 W 9 10.00 Overcast OVC110 60.1 16 18% 29.92 1006.4
03 18:53 W 7 10.00 Mostly Cloudy BKN120 61 12.9 15% 29.93 1007.1
03 17:53 W 14 G 24 10.00 Fair CLR 64.9 9 66.9 61 11% 29.94 1006.7
03 16:53 SW 7 G 24 10.00 Partly Cloudy SCT110 63 16 16% 29.95 1007.7
03 15:53 W 13 G 26 10.00 Fair CLR 66 15.1 14% 29.97 1007.5
03 14:53 SW 12 10.00 Fair CLR 63 15.1 15% 30 1009.2
03 13:53 W 13 10.00 Fair CLR 64.9 14 14% 30.02 1009.1
03 12:53 Vrbl 6 10.00 A Few Clouds FEW100 61 15.1 17% 30.04 1011.5
03 11:53 W 9 G 22 10.00 Fair CLR 61 18 62.1 44.1 19% 30.06 1011.7
03 10:53 SW 12 10.00 Fair CLR 59 21 23% 30.08 1012.4
03 09:53 SW 16 G 23 10.00 Fair CLR 57 21 25% 30.09 1012.5
03 08:53 SW 17 10.00 Fair CLR 52 19.9 28% 30.09 1013.4
03 07:53 SW 15 G 23 10.00 Fair CLR 50 19 29% 45 30.09 1013.0
03 06:53 SW 13 10.00 Fair CLR 45 17.1 33% 39 30.08 1012.4
03 05:53 SW 13 10.00 Mostly Cloudy BKN110 46 16 48.9 39.9 30% 41 30.07 1011.4
03 04:53 SW 10 10.00 Fair CLR 44.1 16 32% 39 30.07 1011.9
03 03:53 SW 15 10.00 A Few Clouds FEW120 46.9 14 26% 41 30.07 1011.3
03 02:53 SW 14 10.00 Fair CLR 45 14 29% 39 30.07 1011.8
03 01:53 SW 15 10.00 Fair CLR 48 10.9 22% 43 30.08 1012.0
03 00:53 SW 7 10.00 Fair CLR 41 15.1 35% 37 30.09 1013.5
02 23:53 SW 5 10.00 Fair CLR 44.1 16 63 44.1 32% 42 30.1 1013.6
02 22:53 SW 9 10.00 Fair CLR 46.9 15.1 28% 43 30.1 1013.6
02 21:53 SW 7 10.00 Fair CLR 50 12.9 22% 48 30.11 1014.2
02 20:53 SW 6 10.00 Fair CLR 50 15.1 25% 48 30.11 1014.8
02 19:53 S 7 10.00 Fair CLR 55.9 10.9 17% 30.1 1015.1
02 18:53 S 13 10.00 Fair CLR 60.1 6.1 11% 30.1 1015.4
02 17:53 SW 12 G 21 10.00 Fair CLR 63 9 64.9 57.9 12% 30.11 1016.1
02 16:53 SW 10 G 26 10.00 Fair CLR 64 10 12% 30.12 1016.1
02 15:53 SW 12 G 23 10.00 Fair CLR 64 9 11% 30.14 1016.6
02 14:53 SW 12 G 25 10.00 Fair CLR 62.1 10 13% 30.17 1017.5
02 13:53 SW 8 10.00 Fair CLR 61 12 14% 30.18 1018.0
02 12:53 Vrbl 6 10.00 Fair CLR 59 14 17% 30.2 1019.1
02 11:53 W 15 G 23 10.00 Fair CLR 57.9 15.1 57.9 21.9 18% 30.23 1019.6
02 10:53 SW 13 G 23 10.00 Fair CLR 55.9 18 22% 30.24 1020.3
02 09:53 SW 14 10.00 Fair CLR 52 21 30% 30.24 1020.4
02 08:53 SW 3 10.00 Fair CLR 45 21 39% 30.25 1021.7
02 07:53 Calm 10.00 Fair CLR 36 21 55% 30.25 1021.4
02 06:53 Calm 10.00 Fair CLR 28.9 21.9 75% 30.23 1021.5
02 05:53 Calm 10.00 Fair CLR 25 19 34 23 78% 30.22 1021.6
02 04:53 N 5 10.00 Fair CLR 25 19 78% 20 30.22 1021.9
02 03:53 E 3 10.00 Fair CLR 27 19 72% 30.22 1021.1
02 02:53 N 3 10.00 Fair CLR 28.9 19.9 69% 30.22 1021.5
02 01:53 Calm 10.00 Fair CLR 30 19.9 66% 30.23 1021.0
02 00:53 NW 5 10.00 Fair CLR 30 19.9 66% 26 30.23 1021.4
01 23:53 Calm 10.00 Fair CLR 33.1 19.9 54 32 58% 30.23 1021.3
01 22:53 NW 7 10.00 Fair CLR 34 19.9 56% 29 30.22 1021.4
01 21:53 NW 6 10.00 Fair CLR 37 19.9 50% 33 30.21 1020.9
01 20:53 N 7 10.00 Fair CLR 39 19.9 46% 35 30.19 1020.8
01 19:53 N 7 10.00 Overcast OVC090 48.9 18 29% 46 30.17 1019.1
01 18:53 N 13 10.00 A Few Clouds FEW100 53.1 14 21% 30.16 1019.2
01 17:53 N 15 10.00 Overcast OVC090 54 16 57 48 22% 30.16 1019.8
01 16:53 NW 8 10.00 A Few Clouds FEW090 53.1 12.9 20% 30.16 1019.7
01 15:53 Calm 10.00 Partly Cloudy SCT085 55 14 20% 30.16 1019.2
Date Time (mdt) Wind (mph) Vis. (mi.) Weather Sky Cond. Air Dwpt Max. Min. Relative Humidity Wind Chill (°F) Heat Index (°F) altimeter (in) sea level (mb) 1 hr 3 hr 6 hr
6 hour
Temperature (ºF) Pressure Precipitation (in)